createdAt,value
2018-11-03T00:00:42.770Z,4.41
2018-11-03T00:03:11.668Z,4.36
2018-11-03T00:05:40.536Z,4.29
2018-11-03T00:08:09.351Z,4.16
2018-11-03T00:10:38.191Z,4.11
2018-11-03T00:13:07.005Z,4.28
2018-11-03T00:15:36.655Z,4.35
2018-11-03T00:18:06.092Z,4.43
2018-11-03T00:20:34.999Z,4.45
2018-11-03T00:23:03.948Z,4.42
2018-11-03T00:25:32.842Z,4.46
2018-11-03T00:28:01.794Z,4.58
2018-11-03T00:30:35.316Z,4.41
2018-11-03T00:33:04.344Z,4.42
2018-11-03T00:35:33.177Z,4.27
2018-11-03T00:38:02.117Z,4.24
2018-11-03T00:40:30.970Z,4.04
2018-11-03T00:43:00.367Z,4.04
2018-11-03T00:45:29.176Z,3.99
2018-11-03T00:47:59.022Z,4.12
2018-11-03T00:50:27.953Z,4.29
2018-11-03T00:52:56.826Z,3.98
2018-11-03T00:55:25.873Z,3.84
2018-11-03T00:57:54.750Z,3.88
2018-11-03T01:00:23.616Z,3.73
2018-11-03T01:02:52.623Z,3.56
2018-11-03T01:05:21.413Z,3.35
2018-11-03T01:07:50.312Z,3.20
2018-11-03T01:10:19.153Z,3.35
2018-11-03T01:12:48.015Z,3.43
2018-11-03T01:15:17.601Z,3.38
2018-11-03T01:17:46.570Z,3.47
2018-11-03T01:20:16.510Z,3.39
2018-11-03T01:22:45.491Z,3.41
2018-11-03T01:25:14.320Z,3.43
2018-11-03T01:27:43.866Z,3.31
2018-11-03T01:30:14.714Z,3.31
2018-11-03T01:32:44.141Z,3.06
2018-11-03T01:35:12.982Z,3.11
2018-11-03T01:37:41.860Z,3.10
2018-11-03T01:40:12.569Z,2.76
2018-11-03T01:42:41.482Z,2.86
2018-11-03T01:45:10.384Z,2.88
2018-11-03T01:47:39.232Z,2.91
2018-11-03T01:50:10.897Z,2.37
2018-11-03T01:52:40.548Z,2.64
2018-11-03T01:55:09.389Z,2.34
2018-11-03T01:57:38.521Z,2.24
2018-11-03T02:00:08.592Z,2.46
2018-11-03T02:02:37.686Z,2.52
2018-11-03T02:05:08.697Z,2.47
2018-11-03T02:07:39.355Z,2.70
2018-11-03T02:10:10.190Z,2.78
2018-11-03T02:12:39.066Z,2.60
2018-11-03T02:15:08.573Z,2.50
2018-11-03T02:17:37.416Z,2.59
2018-11-03T02:20:07.930Z,2.41
2018-11-03T02:22:37.106Z,2.52
2018-11-03T02:25:06.277Z,2.73
2018-11-03T02:27:35.173Z,2.82
2018-11-03T02:30:04.255Z,2.65
2018-11-03T02:32:33.402Z,2.68
2018-11-03T02:35:02.280Z,2.85
2018-11-03T02:39:54.157Z,2.77
2018-11-03T02:42:23.035Z,2.92
2018-11-03T02:44:57.853Z,2.88
2018-11-03T02:47:26.659Z,2.85
2018-11-03T02:49:55.548Z,2.95
2018-11-03T02:52:24.479Z,2.83
2018-11-03T02:54:53.370Z,2.81
2018-11-03T02:57:22.240Z,2.85
2018-11-03T02:59:51.092Z,2.66
2018-11-03T03:02:19.937Z,2.58
2018-11-03T03:04:48.803Z,2.70
2018-11-03T03:07:17.820Z,2.44
2018-11-03T03:09:46.628Z,2.59
2018-11-03T03:12:15.753Z,2.66
2018-11-03T03:14:44.665Z,2.46
2018-11-03T03:17:14.196Z,2.28
2018-11-03T03:19:43.317Z,2.37
2018-11-03T03:22:12.219Z,2.58
2018-11-03T03:24:41.043Z,2.55
2018-11-03T03:27:09.950Z,2.35
2018-11-03T03:29:39.000Z,2.33
2018-11-03T03:32:07.886Z,2.34
2018-11-03T03:34:36.789Z,2.35
2018-11-03T03:37:05.771Z,2.26
2018-11-03T03:39:34.563Z,2.20
2018-11-03T03:42:03.551Z,2.20
2018-11-03T03:44:32.584Z,2.23
2018-11-03T03:47:01.472Z,2.21
2018-11-03T03:49:30.260Z,2.26
2018-11-03T03:51:59.252Z,2.37
2018-11-03T03:54:28.164Z,1.89
2018-11-03T03:56:56.982Z,1.92
2018-11-03T03:59:25.862Z,1.80
2018-11-03T04:01:54.698Z,1.81
2018-11-03T04:04:23.609Z,2.20
2018-11-03T04:06:53.110Z,2.04
2018-11-03T04:09:21.972Z,2.01
2018-11-03T04:11:50.807Z,1.86
2018-11-03T04:14:19.702Z,1.66
2018-11-03T04:16:48.555Z,1.70
2018-11-03T04:19:17.486Z,1.48
2018-11-03T04:21:46.292Z,1.51
2018-11-03T04:24:15.461Z,1.57
2018-11-03T04:26:44.291Z,1.70
2018-11-03T04:29:13.146Z,1.57
2018-11-03T04:31:42.027Z,1.75
2018-11-03T04:34:10.893Z,1.82
2018-11-03T04:36:39.725Z,1.74
2018-11-03T04:39:08.584Z,1.68
2018-11-03T04:41:37.373Z,1.83
2018-11-03T04:44:06.370Z,2.06
2018-11-03T04:46:35.165Z,2.05
2018-11-03T04:49:04.131Z,1.96
2018-11-03T04:51:34.027Z,2.02
2018-11-03T04:54:02.966Z,1.98
2018-11-03T04:56:31.828Z,2.00
2018-11-03T04:59:00.665Z,1.92
2018-11-03T05:01:29.558Z,1.90
2018-11-03T05:03:58.370Z,1.92
2018-11-03T05:06:27.228Z,1.85
2018-11-03T05:08:56.212Z,1.78
2018-11-03T05:11:25.081Z,1.60
2018-11-03T05:13:53.912Z,1.80
2018-11-03T05:16:22.787Z,1.75
2018-11-03T05:18:51.620Z,1.57
2018-11-03T05:21:20.625Z,1.35
2018-11-03T05:23:49.424Z,1.29
2018-11-03T05:26:18.565Z,1.33
2018-11-03T05:28:47.660Z,1.12
2018-11-03T05:31:16.650Z,1.35
2018-11-03T05:33:45.512Z,0.97
2018-11-03T05:36:14.379Z,0.75
2018-11-03T05:38:43.171Z,1.14
2018-11-03T05:41:12.071Z,0.91
2018-11-03T05:43:40.880Z,1.00
2018-11-03T05:46:10.186Z,1.32
2018-11-03T05:48:39.020Z,1.19
2018-11-03T05:51:07.918Z,1.40
2018-11-03T05:53:36.843Z,1.39
2018-11-03T05:56:05.787Z,1.36
2018-11-03T05:58:34.758Z,1.27
2018-11-03T06:01:03.616Z,1.29
2018-11-03T06:03:32.468Z,1.55
2018-11-03T06:06:01.296Z,1.25
2018-11-03T06:08:30.363Z,1.23
2018-11-03T06:11:00.058Z,0.75
2018-11-03T06:13:28.970Z,0.76
2018-11-03T06:15:57.803Z,1.09
2018-11-03T06:18:26.749Z,1.27
2018-11-03T06:20:55.606Z,0.87
2018-11-03T06:23:24.591Z,0.87
2018-11-03T06:25:53.414Z,1.07
2018-11-03T06:28:22.324Z,1.00
2018-11-03T06:30:51.172Z,1.02
2018-11-03T06:33:20.114Z,0.99
2018-11-03T06:35:48.981Z,0.80
2018-11-03T06:38:17.832Z,0.83
2018-11-03T06:40:46.695Z,0.69
2018-11-03T06:43:15.578Z,0.55
2018-11-03T06:45:44.585Z,0.64
2018-11-03T06:48:13.585Z,0.67
2018-11-03T06:50:42.492Z,0.61
2018-11-03T06:53:12.391Z,0.50
2018-11-03T06:55:41.329Z,0.57
2018-11-03T06:58:10.157Z,0.65
2018-11-03T07:00:39.128Z,0.97
2018-11-03T07:03:07.954Z,0.81
2018-11-03T07:05:36.882Z,1.29
2018-11-03T07:08:06.373Z,1.34
2018-11-03T07:10:35.305Z,1.20
2018-11-03T07:13:04.935Z,1.28
2018-11-03T07:15:33.709Z,1.57
2018-11-03T07:18:02.563Z,1.77
2018-11-03T07:20:31.471Z,1.79
2018-11-03T07:23:00.667Z,1.44
2018-11-03T07:25:30.025Z,1.56
2018-11-03T07:28:00.058Z,1.63
2018-11-03T07:30:31.398Z,1.76
2018-11-03T07:33:00.345Z,1.80
2018-11-03T07:35:30.879Z,1.88
2018-11-03T07:38:00.669Z,2.07
2018-11-03T07:40:30.074Z,2.52
2018-11-03T07:42:59.438Z,2.91
2018-11-03T07:45:28.335Z,3.04
2018-11-03T07:47:57.206Z,3.20
2018-11-03T07:50:26.150Z,3.26
2018-11-03T07:52:55.025Z,3.00
2018-11-03T07:55:23.851Z,3.16
2018-11-03T07:57:52.727Z,2.94
2018-11-03T08:00:22.283Z,2.94
2018-11-03T08:02:51.134Z,3.20
2018-11-03T08:05:19.946Z,3.54
2018-11-03T08:07:48.815Z,3.60
2018-11-03T08:10:17.911Z,3.57
2018-11-03T08:12:46.823Z,3.53
2018-11-03T08:15:15.757Z,3.36
2018-11-03T08:17:44.725Z,3.39
2018-11-03T08:20:13.591Z,3.66
2018-11-03T08:22:42.510Z,3.46
2018-11-03T08:25:11.363Z,3.51
2018-11-03T08:27:40.324Z,3.28
2018-11-03T08:30:11.626Z,3.26
2018-11-03T08:32:40.532Z,3.58
2018-11-03T08:35:10.596Z,3.73
2018-11-03T08:37:39.974Z,3.95
2018-11-03T08:40:11.076Z,4.13
2018-11-03T08:42:40.437Z,4.19
2018-11-03T08:45:14.146Z,4.14
2018-11-03T08:47:43.316Z,3.99
2018-11-03T08:50:12.803Z,4.26
2018-11-03T08:52:42.210Z,4.21
2018-11-03T08:55:12.260Z,4.40
2018-11-03T08:57:41.491Z,4.37
2018-11-03T09:00:13.001Z,4.61
2018-11-03T09:02:42.176Z,4.72
2018-11-03T09:05:11.618Z,4.63
2018-11-03T09:07:40.685Z,4.70
2018-11-03T09:10:12.819Z,4.91
2018-11-03T09:12:42.179Z,5.06
2018-11-03T09:15:12.361Z,5.19
2018-11-03T09:17:42.075Z,5.38
2018-11-03T09:20:12.576Z,5.44
2018-11-03T09:22:41.551Z,5.52
2018-11-03T09:25:12.875Z,5.59
2018-11-03T09:27:42.756Z,5.59
2018-11-03T09:30:16.291Z,5.67
2018-11-03T09:32:45.122Z,5.73
2018-11-03T09:35:14.897Z,5.87
2018-11-03T09:37:43.788Z,5.95
2018-11-03T09:40:14.200Z,5.98
2018-11-03T09:42:44.000Z,6.05
2018-11-03T09:45:18.828Z,6.20
2018-11-03T09:47:47.733Z,6.26
2018-11-03T09:50:16.567Z,6.31
2018-11-03T09:52:45.441Z,6.40
2018-11-03T09:55:17.015Z,6.48
2018-11-03T09:57:46.505Z,6.47
2018-11-03T10:00:16.781Z,6.58
2018-11-03T10:02:45.828Z,6.68
2018-11-03T10:05:15.091Z,6.69
2018-11-03T10:07:44.005Z,6.77
2018-11-03T10:10:19.074Z,6.86
2018-11-03T10:12:48.060Z,6.99
2018-11-03T10:15:17.966Z,6.95
2018-11-03T10:17:46.989Z,7.00
2018-11-03T10:20:15.831Z,7.09
2018-11-03T10:22:44.736Z,7.11
2018-11-03T10:25:15.744Z,7.11
2018-11-03T10:27:45.508Z,7.20
2018-11-03T10:30:15.267Z,7.35
2018-11-03T10:32:44.448Z,7.36
2018-11-03T10:35:13.857Z,7.43
2018-11-03T10:37:43.010Z,7.53
2018-11-03T10:40:14.554Z,7.51
2018-11-03T10:42:43.543Z,7.67
2018-11-03T10:45:13.668Z,7.69
2018-11-03T10:47:42.733Z,7.72
2018-11-03T10:50:15.123Z,7.99
2018-11-03T10:52:44.779Z,7.99
2018-11-03T10:55:15.080Z,8.16
2018-11-03T10:57:44.224Z,8.25
2018-11-03T11:00:22.223Z,8.18
2018-11-03T11:02:56.787Z,8.25
2018-11-03T11:05:31.352Z,8.26
2018-11-03T11:08:05.945Z,8.28
2018-11-03T11:10:40.422Z,8.44
2018-11-03T11:13:15.267Z,8.54
2018-11-03T11:15:44.671Z,8.53
2018-11-03T11:18:13.463Z,8.49
2018-11-03T11:20:42.813Z,8.60
2018-11-03T11:23:11.701Z,8.67
2018-11-03T11:25:40.524Z,8.65
2018-11-03T11:28:09.724Z,8.71
2018-11-03T11:30:39.944Z,8.62
2018-11-03T11:33:12.048Z,8.71
2018-11-03T11:35:41.275Z,9.02
2018-11-03T11:38:10.886Z,9.00
2018-11-03T11:40:40.105Z,9.06
2018-11-03T11:43:10.030Z,8.91
2018-11-03T11:45:45.242Z,8.99
2018-11-03T11:48:14.101Z,8.99
2018-11-03T11:50:43.032Z,9.05
2018-11-03T11:53:12.257Z,9.09
2018-11-03T11:55:41.156Z,9.11
2018-11-03T11:58:09.959Z,9.12
2018-11-03T12:00:38.957Z,9.27
2018-11-03T12:03:07.671Z,9.31
2018-11-03T12:05:36.638Z,9.31
2018-11-03T12:08:05.838Z,9.40
2018-11-03T12:10:34.740Z,9.34
2018-11-03T12:13:03.564Z,9.30
2018-11-03T12:15:32.504Z,9.29
2018-11-03T12:18:01.360Z,9.44
2018-11-03T12:20:30.319Z,9.49
2018-11-03T12:22:59.136Z,9.55
2018-11-03T12:25:28.070Z,9.54
2018-11-03T12:27:56.927Z,9.40
2018-11-03T12:30:25.858Z,9.61
2018-11-03T12:32:54.818Z,9.63
2018-11-03T12:35:23.814Z,9.59
2018-11-03T12:37:52.605Z,9.57
2018-11-03T12:40:24.444Z,9.55
2018-11-03T12:42:53.622Z,9.71
2018-11-03T12:45:22.519Z,9.65
2018-11-03T12:47:51.378Z,9.63
2018-11-03T12:50:21.874Z,9.67
2018-11-03T12:52:50.797Z,9.69
2018-11-03T12:55:19.626Z,9.75
2018-11-03T12:57:48.810Z,9.78
2018-11-03T13:00:17.604Z,9.74
2018-11-03T13:02:46.859Z,9.73
2018-11-03T13:05:16.266Z,9.89
2018-11-03T13:07:45.796Z,9.73
2018-11-03T13:10:14.710Z,9.80
2018-11-03T13:12:43.621Z,9.78
2018-11-03T13:15:13.195Z,9.69
2018-11-03T13:17:42.038Z,9.89
2018-11-03T13:20:12.947Z,9.79
2018-11-03T13:22:42.675Z,9.79
2018-11-03T13:25:11.852Z,9.73
2018-11-03T13:27:41.294Z,9.71
2018-11-03T13:30:12.498Z,9.87
2018-11-03T13:32:41.396Z,9.57
2018-11-03T13:35:11.717Z,9.83
2018-11-03T13:37:40.692Z,9.85
2018-11-03T13:40:11.051Z,9.89
2018-11-03T13:42:40.152Z,9.91
2018-11-03T13:45:13.914Z,9.72
2018-11-03T13:47:42.927Z,9.77
2018-11-03T13:50:13.063Z,9.73
2018-11-03T13:52:44.096Z,9.82
2018-11-03T13:55:13.722Z,9.78
2018-11-03T13:57:43.864Z,9.81
2018-11-03T14:00:17.533Z,9.76
2018-11-03T14:02:47.310Z,9.78
2018-11-03T14:05:16.219Z,9.75
2018-11-03T14:07:45.107Z,9.44
2018-11-03T14:10:15.058Z,9.52
2018-11-03T14:12:44.681Z,9.48
2018-11-03T14:15:14.912Z,9.59
2018-11-03T14:17:43.763Z,9.59
2018-11-03T14:20:13.697Z,9.54
2018-11-03T14:46:13.412Z,9.28
2018-11-03T14:48:42.371Z,9.19
2018-11-03T14:51:11.275Z,9.15
2018-11-03T14:53:40.127Z,9.14
2018-11-03T14:56:08.988Z,9.00
2018-11-03T14:58:38.136Z,9.01
2018-11-03T15:01:07.099Z,9.04
2018-11-03T15:03:35.932Z,8.76
2018-11-03T15:06:05.022Z,8.67
2018-11-03T15:08:33.888Z,8.69
2018-11-03T15:11:02.749Z,8.64
2018-11-03T15:13:31.667Z,8.53
2018-11-03T15:16:00.520Z,8.50
2018-11-03T15:18:29.346Z,8.57
2018-11-03T15:20:58.254Z,8.39
2018-11-03T15:23:27.131Z,8.28
2018-11-03T15:25:56.080Z,8.20
2018-11-03T15:28:24.924Z,8.12
2018-11-03T15:30:53.784Z,8.04
2018-11-03T15:33:22.605Z,7.89
2018-11-03T15:35:51.422Z,7.81
2018-11-03T15:38:20.312Z,7.76
2018-11-03T15:40:49.373Z,7.69
2018-11-03T15:43:18.283Z,7.62
2018-11-03T15:45:47.162Z,7.58
2018-11-03T15:48:16.305Z,7.47
2018-11-03T15:50:48.760Z,7.41
2018-11-03T15:53:17.782Z,7.34
2018-11-03T15:55:47.969Z,7.28
2018-11-03T15:58:18.643Z,7.24
2018-11-03T16:00:49.046Z,7.16
2018-11-03T16:03:19.450Z,7.06
2018-11-03T16:05:48.510Z,6.99
2018-11-03T16:08:18.743Z,6.94
2018-11-03T16:10:47.782Z,6.87
2018-11-03T16:13:16.767Z,6.79
2018-11-03T16:15:45.593Z,6.73
2018-11-03T16:18:14.545Z,6.65
2018-11-03T16:20:45.398Z,6.57
2018-11-03T16:23:14.439Z,6.60
2018-11-03T16:25:43.617Z,6.61
2018-11-03T16:28:12.542Z,6.53
2018-11-03T16:30:41.392Z,6.44
2018-11-03T16:33:10.284Z,6.38
2018-11-03T16:35:39.142Z,6.33
2018-11-03T16:38:08.472Z,6.22
2018-11-03T16:40:37.287Z,6.16
2018-11-03T16:43:06.255Z,6.10
2018-11-03T16:45:35.214Z,6.05
2018-11-03T16:48:04.576Z,6.01
2018-11-03T16:50:33.769Z,5.91
2018-11-03T16:53:02.673Z,5.88
2018-11-03T16:55:32.037Z,5.91
2018-11-03T16:58:00.822Z,5.84
2018-11-03T17:00:29.701Z,5.77
2018-11-03T17:02:58.626Z,5.68
2018-11-03T17:05:27.500Z,5.64
2018-11-03T17:07:56.333Z,5.57
2018-11-03T17:10:25.216Z,5.52
2018-11-03T17:12:54.081Z,5.52
2018-11-03T17:15:23.110Z,5.40
2018-11-03T17:17:51.944Z,5.41
2018-11-03T17:20:20.839Z,5.31
2018-11-03T17:22:49.701Z,5.30
2018-11-03T17:25:18.956Z,5.21
2018-11-03T17:27:47.844Z,5.16
2018-11-03T17:30:16.721Z,5.11
2018-11-03T17:32:45.577Z,5.06
2018-11-03T17:35:14.489Z,5.06
2018-11-03T17:37:43.727Z,5.05
2018-11-03T17:40:12.803Z,5.18
2018-11-03T17:42:41.627Z,5.21
2018-11-03T17:45:13.353Z,5.04
2018-11-03T17:47:42.254Z,5.06
2018-11-03T17:50:12.631Z,4.90
2018-11-03T17:52:41.697Z,4.83
2018-11-03T17:55:10.957Z,4.83
2018-11-03T17:57:39.879Z,4.84
2018-11-03T18:00:12.820Z,4.81
2018-11-03T18:02:42.475Z,4.79
2018-11-03T18:05:11.408Z,4.77
2018-11-03T18:07:40.292Z,4.58
2018-11-03T18:10:11.157Z,4.56
2018-11-03T18:12:40.313Z,4.63
2018-11-03T18:15:09.715Z,4.64
2018-11-03T18:17:38.734Z,4.73
2018-11-03T18:20:08.845Z,4.72
2018-11-03T18:22:37.910Z,4.79
2018-11-03T18:25:07.111Z,4.60
2018-11-03T18:27:35.967Z,4.41
2018-11-03T18:30:06.100Z,4.43
2018-11-03T18:32:34.991Z,4.44
2018-11-03T18:35:03.896Z,4.32
2018-11-03T18:37:32.856Z,4.38
2018-11-03T18:40:01.698Z,4.45
2018-11-03T18:42:30.587Z,4.42
2018-11-03T18:44:59.502Z,4.39
2018-11-03T18:47:28.419Z,4.41
2018-11-03T18:49:57.273Z,4.46
2018-11-03T18:52:26.167Z,4.43
2018-11-03T18:54:55.151Z,4.41
2018-11-03T18:57:24.074Z,4.42
2018-11-03T18:59:52.992Z,4.38
2018-11-03T19:02:21.915Z,4.37
2018-11-03T19:04:50.825Z,4.37
2018-11-03T19:07:19.749Z,4.38
2018-11-03T19:09:48.647Z,4.40
2018-11-03T19:12:17.506Z,4.37
2018-11-03T19:14:46.400Z,4.43
2018-11-03T19:17:15.407Z,4.55
2018-11-03T19:19:44.294Z,4.46
2018-11-03T19:22:13.167Z,4.39
2018-11-03T19:24:42.037Z,4.37
2018-11-03T19:27:11.300Z,4.30
2018-11-03T19:29:40.590Z,4.35
2018-11-03T19:32:09.668Z,4.30
2018-11-03T19:34:39.024Z,4.17
2018-11-03T19:37:07.889Z,4.07
2018-11-03T19:39:37.677Z,4.17
2018-11-03T19:42:06.936Z,4.11
2018-11-03T19:44:36.369Z,4.07
2018-11-03T19:47:05.548Z,4.09
2018-11-03T19:49:35.464Z,4.08
2018-11-03T19:52:05.269Z,4.01
2018-11-03T19:54:34.447Z,3.94
2018-11-03T19:57:03.425Z,3.92
2018-11-03T19:59:32.262Z,3.85
2018-11-03T20:02:01.222Z,3.92
2018-11-03T20:04:30.076Z,3.83
2018-11-03T20:06:59.005Z,3.84
2018-11-03T20:09:27.933Z,3.82
2018-11-03T20:11:57.150Z,3.64
2018-11-03T20:14:26.377Z,3.67
2018-11-03T20:16:55.670Z,3.64
2018-11-03T20:19:24.508Z,3.58
2018-11-03T20:21:53.511Z,3.53
2018-11-03T20:24:22.726Z,3.26
2018-11-03T20:26:52.062Z,3.19
2018-11-03T20:29:20.874Z,3.10
2018-11-03T20:31:49.798Z,3.06
2018-11-03T20:34:18.753Z,3.06
2018-11-03T20:36:47.738Z,2.88
2018-11-03T20:39:16.853Z,3.03
2018-11-03T20:41:45.727Z,3.08
2018-11-03T20:44:14.813Z,3.07
2018-11-03T20:46:43.717Z,3.12
2018-11-03T20:49:12.598Z,3.12
2018-11-03T20:51:41.609Z,3.06
2018-11-03T20:54:10.557Z,2.97
2018-11-03T20:56:39.409Z,2.84
2018-11-03T20:59:08.535Z,2.92
2018-11-03T21:01:37.379Z,2.99
2018-11-03T21:04:06.279Z,2.97
2018-11-03T21:06:35.299Z,2.99
2018-11-03T21:09:05.568Z,2.81
2018-11-03T21:11:34.446Z,2.81
2018-11-03T21:14:03.371Z,3.03
2018-11-03T21:16:32.336Z,2.96
2018-11-03T21:19:01.435Z,2.92
2018-11-03T21:21:30.394Z,2.97
2018-11-03T21:23:59.731Z,2.84
2018-11-03T21:26:28.497Z,2.69
2018-11-03T21:28:57.456Z,2.56
2018-11-03T21:31:26.380Z,2.48
2018-11-03T21:33:55.430Z,2.61
2018-11-03T21:36:24.361Z,2.79
2018-11-03T21:38:54.316Z,2.71
2018-11-03T21:41:23.949Z,2.62
2018-11-03T21:43:52.809Z,2.74
2018-11-03T21:46:21.689Z,2.64
2018-11-03T21:48:50.613Z,2.60
2018-11-03T21:51:19.525Z,2.54
2018-11-03T21:53:48.393Z,2.54
2018-11-03T21:56:17.279Z,2.46
2018-11-03T21:58:46.102Z,2.34
2018-11-03T22:01:15.097Z,2.25
2018-11-03T22:03:43.952Z,2.35
2018-11-03T22:06:12.906Z,2.61
2018-11-03T22:08:41.711Z,2.61
2018-11-03T22:11:10.627Z,2.64
2018-11-03T22:13:39.569Z,2.64
2018-11-03T22:16:08.749Z,2.71
2018-11-03T22:18:37.613Z,2.63
2018-11-03T22:21:06.524Z,2.55
2018-11-03T22:23:35.381Z,2.60
2018-11-03T22:26:05.625Z,2.75
2018-11-03T22:28:34.472Z,2.72
2018-11-03T22:31:03.407Z,2.74
2018-11-03T22:33:32.290Z,2.71
2018-11-03T22:36:01.112Z,2.55
2018-11-03T22:38:30.045Z,2.41
2018-11-03T22:40:59.143Z,2.58
2018-11-03T22:43:28.035Z,2.48
2018-11-03T22:45:56.984Z,2.57
2018-11-03T22:48:25.868Z,2.55
2018-11-03T22:50:54.802Z,2.40
2018-11-03T22:53:23.786Z,2.42
2018-11-03T22:55:52.616Z,2.47
2018-11-03T22:58:21.505Z,2.50
2018-11-03T23:00:57.143Z,2.46
2018-11-03T23:03:26.756Z,2.43
2018-11-03T23:05:55.616Z,2.37
2018-11-03T23:08:24.713Z,2.44
2018-11-03T23:10:53.519Z,2.36
2018-11-03T23:13:22.434Z,2.50
2018-11-03T23:15:51.350Z,2.45
2018-11-03T23:18:20.226Z,2.47
2018-11-03T23:20:49.031Z,2.46
2018-11-03T23:23:17.920Z,2.42
2018-11-03T23:25:46.745Z,2.30
2018-11-03T23:28:15.689Z,2.44
2018-11-03T23:30:44.493Z,2.62
2018-11-03T23:33:13.364Z,2.53
2018-11-03T23:35:42.236Z,2.49
2018-11-03T23:38:11.144Z,2.56
2018-11-03T23:40:40.257Z,2.56
2018-11-03T23:43:09.417Z,2.52
2018-11-03T23:45:38.302Z,2.47
2018-11-03T23:48:07.201Z,2.51
2018-11-03T23:50:36.157Z,2.52
2018-11-03T23:53:05.288Z,2.49
2018-11-03T23:55:34.190Z,2.54
2018-11-03T23:58:03.276Z,2.57
